createdAt,value
2018-07-25T00:01:54.517Z,99926.92
2018-07-25T00:04:22.332Z,99926.00
2018-07-25T00:06:50.418Z,99921.91
2018-07-25T00:09:17.519Z,99924.03
2018-07-25T00:11:45.649Z,99924.55
2018-07-25T00:14:13.163Z,99927.16
2018-07-25T00:16:41.309Z,99929.44
2018-07-25T00:19:08.402Z,99926.69
2018-07-25T00:21:35.505Z,99928.81
2018-07-25T00:24:04.388Z,99929.23
2018-07-25T00:26:31.468Z,99924.92
2018-07-25T00:28:59.580Z,99927.08
2018-07-25T00:31:31.042Z,99923.53
2018-07-25T00:34:01.952Z,99925.56
2018-07-25T00:36:29.170Z,99917.81
2018-07-25T00:38:56.240Z,99922.39
2018-07-25T00:41:23.444Z,99920.74
2018-07-25T00:43:50.462Z,99919.23
2018-07-25T00:46:17.578Z,99914.43
2018-07-25T00:48:44.612Z,99918.86
2018-07-25T00:51:12.574Z,99916.56
2018-07-25T00:53:39.763Z,99914.94
2018-07-25T00:56:09.387Z,99915.34
2018-07-25T00:58:36.452Z,99917.92
2018-07-25T01:01:05.498Z,99918.77
2018-07-25T01:03:33.438Z,99922.27
2018-07-25T01:06:01.388Z,99929.23
2018-07-25T01:08:29.660Z,99925.28
2018-07-25T01:10:56.728Z,99923.37
2018-07-25T01:13:25.195Z,99926.64
2018-07-25T01:15:55.192Z,99921.54
2018-07-25T01:18:22.402Z,99928.98
2018-07-25T01:20:51.680Z,99926.27
2018-07-25T01:23:18.895Z,99920.62
2018-07-25T01:25:47.974Z,99925.71
2018-07-25T01:28:17.788Z,99930.56
2018-07-25T01:30:46.632Z,99927.03
2018-07-25T01:33:15.132Z,99921.33
2018-07-25T01:35:43.623Z,99925.87
2018-07-25T01:38:12.656Z,99921.33
2018-07-25T01:40:41.726Z,99933.40
2018-07-25T01:43:09.093Z,99924.92
2018-07-25T01:45:37.686Z,99922.59
2018-07-25T01:48:06.665Z,99925.58
2018-07-25T01:50:33.980Z,99929.37
2018-07-25T01:53:02.137Z,99930.98
2018-07-25T01:55:30.341Z,99937.09
2018-07-25T01:57:57.726Z,99934.16
2018-07-25T02:00:25.511Z,99937.94
2018-07-25T02:02:53.668Z,99938.23
2018-07-25T02:05:22.476Z,99939.08
2018-07-25T02:07:49.591Z,99941.37
2018-07-25T02:10:16.681Z,99947.35
2018-07-25T02:12:43.776Z,99946.75
2018-07-25T02:15:13.866Z,99950.41
2018-07-25T02:17:45.093Z,99946.66
2018-07-25T02:20:15.187Z,99945.14
2018-07-25T02:22:50.430Z,99944.62
2018-07-25T02:25:19.457Z,99950.70
2018-07-25T02:27:47.450Z,99945.35
2018-07-25T02:30:16.505Z,99945.09
2018-07-25T02:32:46.641Z,99944.05
2018-07-25T02:35:13.753Z,99952.42
2018-07-25T02:37:40.917Z,99947.47
2018-07-25T02:40:14.211Z,99953.22
2018-07-25T02:42:44.508Z,99955.77
2018-07-25T02:45:11.639Z,99956.19
2018-07-25T02:47:38.637Z,99964.87
2018-07-25T02:50:09.749Z,99955.77
2018-07-25T02:52:39.809Z,99967.22
2018-07-25T02:55:07.210Z,99966.60
2018-07-25T02:57:34.293Z,99968.01
2018-07-25T03:00:07.574Z,99965.57
2018-07-25T03:02:35.742Z,99972.14
2018-07-25T03:05:07.316Z,99974.90
2018-07-25T03:07:41.658Z,99970.84
2018-07-25T03:10:08.678Z,99977.94
2018-07-25T03:12:36.266Z,99979.66
2018-07-25T03:15:04.845Z,99982.18
2018-07-25T03:17:32.559Z,99979.05
2018-07-25T03:19:59.620Z,99979.50
2018-07-25T03:22:26.760Z,99982.72
2018-07-25T03:24:56.658Z,99986.58
2018-07-25T03:27:23.731Z,99987.77
2018-07-25T03:29:50.782Z,99986.78
2018-07-25T03:32:18.465Z,99986.81
2018-07-25T03:34:45.512Z,99990.52
2018-07-25T03:37:12.601Z,99998.99
2018-07-25T03:39:42.672Z,99987.92
2018-07-25T03:42:09.702Z,99994.05
2018-07-25T03:44:36.700Z,99993.05
2018-07-25T03:47:04.202Z,99993.83
2018-07-25T03:49:37.993Z,99996.17
2018-07-25T03:52:06.013Z,99994.36
2018-07-25T03:54:33.275Z,100003.25
2018-07-25T03:57:02.975Z,99998.22
2018-07-25T03:59:34.904Z,100004.41
2018-07-25T04:02:10.304Z,100006.02
2018-07-25T04:04:37.408Z,100014.25
2018-07-25T04:07:07.526Z,100010.61
2018-07-25T04:09:35.639Z,100014.56
2018-07-25T04:12:07.745Z,100016.37
2018-07-25T04:14:36.567Z,100016.21
2018-07-25T04:17:03.722Z,100016.72
2018-07-25T04:19:34.799Z,100015.20
2018-07-25T04:22:05.024Z,100018.97
2018-07-25T04:24:32.232Z,100015.86
2018-07-25T04:26:59.304Z,100020.45
2018-07-25T04:29:27.116Z,100017.22
2018-07-25T04:31:57.411Z,100024.78
2018-07-25T04:34:27.531Z,100021.61
2018-07-25T04:36:54.675Z,100027.19
2018-07-25T04:39:26.844Z,100022.27
2018-07-25T04:41:54.937Z,100032.53
2018-07-25T04:44:26.594Z,100034.53
2018-07-25T04:46:59.965Z,100033.36
2018-07-25T04:49:27.093Z,100033.33
2018-07-25T04:51:57.175Z,100035.84
2018-07-25T04:54:25.237Z,100033.82
2018-07-25T04:56:52.415Z,100031.40
2018-07-25T04:59:20.472Z,100032.67
2018-07-25T05:01:48.093Z,100038.05
2018-07-25T05:04:15.221Z,100040.94
2018-07-25T05:06:42.352Z,100035.72
2018-07-25T05:09:10.211Z,100052.25
2018-07-25T05:11:39.222Z,100050.98
2018-07-25T05:14:07.467Z,100052.26
2018-07-25T05:16:40.280Z,100055.38
2018-07-25T05:19:11.701Z,100054.62
2018-07-25T05:21:45.100Z,100060.97
2018-07-25T05:24:13.182Z,100059.23
2018-07-25T05:26:41.180Z,100056.57
2018-07-25T05:29:10.194Z,100063.27
2018-07-25T05:31:37.225Z,100063.13
2018-07-25T05:34:04.465Z,100065.07
2018-07-25T05:36:33.624Z,100071.06
2018-07-25T05:39:00.892Z,100068.92
2018-07-25T05:41:34.473Z,100073.44
2018-07-25T05:44:01.683Z,100073.81
2018-07-25T05:46:36.306Z,100077.05
2018-07-25T05:49:05.385Z,100073.88
2018-07-25T05:51:32.510Z,100082.23
2018-07-25T05:54:07.344Z,100079.77
2018-07-25T05:56:35.118Z,100073.44
2018-07-25T05:59:04.345Z,100085.05
2018-07-25T06:01:33.224Z,100075.83
2018-07-25T06:04:00.364Z,100085.23
2018-07-25T06:06:28.084Z,100083.66
2018-07-25T06:08:55.336Z,100083.80
2018-07-25T06:11:23.551Z,100086.43
2018-07-25T06:13:54.698Z,100081.27
2018-07-25T06:16:21.888Z,100085.73
2018-07-25T06:18:50.792Z,100085.14
2018-07-25T06:21:22.437Z,100091.23
2018-07-25T06:23:51.192Z,100088.37
2018-07-25T06:26:19.163Z,100089.41
2018-07-25T06:28:46.224Z,100087.73
2018-07-25T06:31:14.399Z,100091.72
2018-07-25T06:33:41.538Z,100089.76
2018-07-25T06:36:09.168Z,100093.92
2018-07-25T06:38:37.260Z,100099.98
2018-07-25T06:41:04.353Z,100104.16
2018-07-25T06:43:31.431Z,100096.09
2018-07-25T06:46:00.170Z,100097.63
2018-07-25T06:48:28.138Z,100095.51
2018-07-25T06:50:55.254Z,100101.37
2018-07-25T06:53:22.367Z,100104.81
2018-07-25T06:55:53.975Z,100099.02
2018-07-25T06:58:21.661Z,100100.67
2018-07-25T07:00:51.852Z,100111.39
2018-07-25T07:03:23.150Z,100103.97
2018-07-25T07:05:50.236Z,100104.89
2018-07-25T07:08:17.321Z,100113.33
2018-07-25T07:10:44.404Z,100104.22
2018-07-25T07:13:12.207Z,100099.37
2018-07-25T07:15:39.498Z,100103.52
2018-07-25T07:18:07.168Z,100098.74
2018-07-25T07:20:34.185Z,100107.02
2018-07-25T07:23:01.461Z,100107.84
2018-07-25T07:25:28.772Z,100105.33
2018-07-25T07:27:55.921Z,100106.94
2018-07-25T07:30:25.197Z,100102.85
2018-07-25T07:32:53.283Z,100112.10
2018-07-25T07:35:23.567Z,100116.00
2018-07-25T07:37:53.805Z,100121.17
2018-07-25T07:40:20.849Z,100111.30
2018-07-25T07:42:49.641Z,100111.05
2018-07-25T07:45:16.714Z,100121.92
2018-07-25T07:47:43.843Z,100119.36
2018-07-25T07:50:10.911Z,100119.08
2018-07-25T07:52:38.082Z,100113.69
2018-07-25T07:55:06.217Z,100120.40
2018-07-25T07:57:33.288Z,100123.36
2018-07-25T08:00:01.422Z,100118.37
2018-07-25T08:02:31.588Z,100122.13
2018-07-25T08:05:01.817Z,100119.30
2018-07-25T08:07:29.839Z,100117.45
2018-07-25T08:09:56.927Z,100119.54
2018-07-25T08:12:24.195Z,100114.12
2018-07-25T08:14:52.286Z,100115.72
2018-07-25T08:17:19.316Z,100121.67
2018-07-25T08:19:46.380Z,100119.09
2018-07-25T08:22:15.451Z,100111.84
2018-07-25T08:24:46.308Z,100120.89
2018-07-25T08:27:14.331Z,100110.39
2018-07-25T08:29:42.407Z,100111.19
2018-07-25T08:32:16.521Z,100111.37
2018-07-25T08:34:45.377Z,100108.39
2018-07-25T08:37:12.503Z,100106.05
2018-07-25T08:39:42.670Z,100098.05
2018-07-25T08:42:13.206Z,100091.78
2018-07-25T08:44:40.296Z,100094.36
2018-07-25T08:47:13.598Z,100100.95
2018-07-25T08:49:40.804Z,100101.41
2018-07-25T08:52:12.752Z,100102.36
2018-07-25T08:54:39.907Z,100105.05
2018-07-25T08:57:10.416Z,100109.16
2018-07-25T08:59:37.488Z,100108.58
2018-07-25T09:02:08.709Z,100113.80
2018-07-25T09:04:35.807Z,100107.91
2018-07-25T09:07:07.450Z,100112.35
2018-07-25T09:09:34.614Z,100102.47
2018-07-25T09:12:01.666Z,100099.73
2018-07-25T09:14:28.748Z,100104.06
2018-07-25T09:16:56.827Z,100098.63
2018-07-25T09:19:27.807Z,100100.29
2018-07-25T09:21:55.980Z,100089.53
2018-07-25T09:24:26.216Z,100100.65
2018-07-25T09:26:53.344Z,100095.95
2018-07-25T09:29:20.516Z,100092.66
2018-07-25T09:31:47.637Z,100086.29
2018-07-25T09:34:15.017Z,100082.53
2018-07-25T09:36:51.049Z,100091.23
2018-07-25T09:39:21.807Z,100086.94
2018-07-25T09:41:52.149Z,100088.61
2018-07-25T09:44:20.803Z,100090.58
2018-07-25T09:46:48.000Z,100089.25
2018-07-25T09:49:15.101Z,100083.28
2018-07-25T09:51:42.418Z,100088.22
2018-07-25T09:54:11.623Z,100083.70
2018-07-25T09:56:41.727Z,100082.53
2018-07-25T09:59:08.821Z,100085.04
2018-07-25T10:01:38.270Z,100076.94
2018-07-25T10:04:05.412Z,100074.16
2018-07-25T10:06:32.493Z,100075.90
2018-07-25T10:08:59.578Z,100070.84
2018-07-25T10:11:27.716Z,100074.94
2018-07-25T10:13:56.707Z,100065.44
2018-07-25T10:16:25.888Z,100072.56
2018-07-25T10:18:56.120Z,100066.11
2018-07-25T10:21:23.890Z,100061.31
2018-07-25T10:23:51.060Z,100057.37
2018-07-25T10:26:18.209Z,100054.55
2018-07-25T10:28:47.848Z,100070.77
2018-07-25T10:31:17.279Z,100054.25
2018-07-25T10:33:44.549Z,100056.20
2018-07-25T10:36:11.953Z,100043.73
2018-07-25T10:38:39.807Z,100053.27
2018-07-25T10:41:06.984Z,100054.09
2018-07-25T10:43:34.090Z,100055.49
2018-07-25T10:46:01.207Z,100042.52
2018-07-25T10:48:28.305Z,100038.74
2018-07-25T10:50:55.360Z,100037.84
2018-07-25T10:53:22.590Z,100040.51
2018-07-25T10:55:49.779Z,100043.44
2018-07-25T10:58:16.764Z,100043.50
2018-07-25T11:00:43.883Z,100035.75
2018-07-25T11:03:14.600Z,100027.80
2018-07-25T11:05:41.706Z,100027.31
2018-07-25T11:08:08.734Z,100030.60
2018-07-25T11:10:35.891Z,100026.80
2018-07-25T11:13:04.029Z,100030.27
2018-07-25T11:15:31.875Z,100017.92
2018-07-25T11:18:00.252Z,100023.19
2018-07-25T11:20:27.291Z,100015.56
2018-07-25T11:22:54.547Z,100014.31
2018-07-25T11:25:21.793Z,100005.95
2018-07-25T11:27:49.964Z,100012.49
2018-07-25T11:30:17.054Z,100011.48
2018-07-25T11:32:47.362Z,100007.73
2018-07-25T11:35:15.415Z,100005.81
2018-07-25T11:37:42.596Z,100006.76
2018-07-25T11:40:10.240Z,100014.30
2018-07-25T11:42:38.022Z,100007.87
2018-07-25T11:45:05.136Z,100001.69
2018-07-25T11:47:32.206Z,100017.52
2018-07-25T11:49:59.290Z,100003.86
2018-07-25T11:52:27.352Z,100008.91
2018-07-25T11:54:54.601Z,100003.19
2018-07-25T11:57:21.931Z,99997.86
2018-07-25T11:59:48.970Z,99997.37
2018-07-25T12:02:16.076Z,99997.03
2018-07-25T12:04:44.875Z,100003.56
2018-07-25T12:07:11.957Z,99998.53
2018-07-25T12:09:39.052Z,99990.14
2018-07-25T12:12:06.300Z,99996.48
2018-07-25T12:14:34.454Z,99984.16
2018-07-25T12:17:02.397Z,99990.18
2018-07-25T12:19:34.072Z,99985.22
2018-07-25T12:22:04.211Z,99986.98
2018-07-25T12:24:31.308Z,99979.97
2018-07-25T12:26:58.514Z,99980.16
2018-07-25T12:29:28.620Z,99971.16
2018-07-25T12:31:55.685Z,99976.45
2018-07-25T12:36:50.161Z,99969.17
2018-07-25T12:39:20.504Z,99970.73
2018-07-25T12:41:48.378Z,99954.91
2018-07-25T12:44:15.453Z,99968.53
2018-07-25T12:46:42.545Z,99966.45
2018-07-25T12:49:15.513Z,99963.02
2018-07-25T12:51:42.636Z,99957.91
2018-07-25T12:54:09.913Z,99955.59
2018-07-25T12:56:39.944Z,99961.88
2018-07-25T12:59:07.022Z,99959.64
2018-07-25T13:01:34.096Z,99949.12
2018-07-25T13:04:01.191Z,99957.35
2018-07-25T13:06:28.352Z,99944.14
2018-07-25T13:08:55.452Z,99944.91
2018-07-25T13:11:24.488Z,99943.75
2018-07-25T13:13:51.621Z,99937.03
2018-07-25T13:16:18.712Z,99950.63
2018-07-25T13:18:46.104Z,99942.46
2018-07-25T13:21:16.931Z,99938.02
2018-07-25T13:23:47.092Z,99948.30
2018-07-25T13:26:17.403Z,99936.49
2018-07-25T13:28:45.537Z,99938.03
2018-07-25T13:31:12.612Z,99939.79
2018-07-25T13:33:39.706Z,99936.67
2018-07-25T13:36:07.006Z,99940.84
2018-07-25T13:38:34.014Z,99942.17
2018-07-25T13:41:01.148Z,99936.05
2018-07-25T13:43:28.648Z,99938.59
2018-07-25T13:45:56.922Z,99934.14
2018-07-25T13:48:31.369Z,99927.31
2018-07-25T13:50:58.517Z,99921.86
2018-07-25T13:53:28.066Z,99918.36
2018-07-25T13:55:56.793Z,99919.40
2018-07-25T13:58:24.538Z,99918.78
2018-07-25T14:00:51.667Z,99922.52
2018-07-25T14:03:20.761Z,99928.06
2018-07-25T14:05:50.982Z,99922.09
2018-07-25T14:08:19.959Z,99918.03
2018-07-25T14:10:48.088Z,99912.59
2018-07-25T14:13:15.166Z,99910.89
2018-07-25T14:15:45.260Z,99901.02
2018-07-25T14:18:21.906Z,99909.35
2018-07-25T14:20:54.621Z,99899.27
2018-07-25T14:23:25.525Z,99908.83
2018-07-25T14:25:52.617Z,99896.00
2018-07-25T14:28:19.781Z,99899.89
2018-07-25T14:30:55.580Z,99903.97
2018-07-25T14:33:26.037Z,99910.73
2018-07-25T14:35:53.182Z,99902.02
2018-07-25T14:38:20.252Z,99901.67
2018-07-25T14:40:47.924Z,99898.44
2018-07-25T14:43:16.075Z,99888.27
2018-07-25T14:45:43.914Z,99891.31
2018-07-25T14:48:11.036Z,99887.77
2018-07-25T14:50:38.185Z,99886.70
2018-07-25T14:53:05.329Z,99890.58
2018-07-25T14:55:32.451Z,99879.77
2018-07-25T14:57:59.649Z,99882.72
2018-07-25T15:03:04.881Z,99884.90
2018-07-25T15:05:32.004Z,99873.75
2018-07-25T15:08:05.641Z,99878.37
2018-07-25T15:10:32.807Z,99876.45
2018-07-25T15:13:00.997Z,99875.10
2018-07-25T15:15:30.040Z,99863.11
2018-07-25T15:17:57.192Z,99869.95
2018-07-25T15:20:27.322Z,99867.20
2018-07-25T15:22:54.409Z,99862.17
2018-07-25T15:25:22.619Z,99863.63
2018-07-25T15:27:55.246Z,99870.05
2018-07-25T15:30:23.464Z,99868.67
2018-07-25T15:32:50.695Z,99872.14
2018-07-25T15:35:18.714Z,99867.94
2018-07-25T15:37:46.020Z,99872.39
2018-07-25T15:40:13.165Z,99867.27
2018-07-25T15:42:40.322Z,99862.80
2018-07-25T15:45:07.436Z,99867.81
2018-07-25T15:47:34.681Z,99867.00
2018-07-25T15:50:01.828Z,99865.28
2018-07-25T15:52:28.944Z,99866.25
2018-07-25T15:54:58.134Z,99857.06
2018-07-25T15:57:26.024Z,99856.86
2018-07-25T15:59:55.232Z,99858.98
2018-07-25T16:02:22.458Z,99855.20
2018-07-25T16:04:49.577Z,99853.18
2018-07-25T16:07:16.693Z,99851.11
2018-07-25T16:09:47.225Z,99847.16
2018-07-25T16:12:16.142Z,99841.43
2018-07-25T16:14:44.060Z,99831.30
2018-07-25T16:17:11.288Z,99835.10
2018-07-25T16:19:38.413Z,99833.82
2018-07-25T16:22:11.120Z,99833.52
2018-07-25T16:24:43.205Z,99832.39
2018-07-25T16:27:10.389Z,99827.81
2018-07-25T16:29:39.071Z,99819.53
2018-07-25T16:32:06.221Z,99823.71
2018-07-25T16:34:34.346Z,99825.97
2018-07-25T16:37:02.449Z,99823.63
2018-07-25T16:39:29.517Z,99828.50
2018-07-25T16:41:56.694Z,99826.09
2018-07-25T16:44:23.886Z,99825.41
2018-07-25T16:46:51.973Z,99816.51
2018-07-25T16:49:19.144Z,99827.92
2018-07-25T16:51:52.284Z,99820.63
2018-07-25T16:54:20.508Z,99825.94
2018-07-25T16:56:47.794Z,99825.27
2018-07-25T16:59:14.926Z,99821.83
2018-07-25T17:01:42.676Z,99820.16
2018-07-25T17:04:11.846Z,99818.14
2018-07-25T17:06:39.156Z,99818.02
2018-07-25T17:09:08.053Z,99818.28
2018-07-25T17:11:35.283Z,99817.61
2018-07-25T17:14:08.737Z,99824.73
2018-07-25T17:16:35.980Z,99825.98
2018-07-25T17:19:03.116Z,99827.54
2018-07-25T17:21:30.411Z,99827.65
2018-07-25T17:23:59.865Z,99821.88
2018-07-25T17:26:27.595Z,99827.91
2018-07-25T17:28:54.845Z,99824.24
2018-07-25T17:31:21.944Z,99821.39
2018-07-25T17:33:49.264Z,99825.84
2018-07-25T17:36:16.501Z,99825.15
2018-07-25T17:38:44.553Z,99824.69
2018-07-25T17:41:12.590Z,99823.10
2018-07-25T17:43:39.921Z,99831.95
2018-07-25T17:46:07.577Z,99830.96
2018-07-25T17:48:34.690Z,99835.03
2018-07-25T17:51:03.350Z,99837.98
2018-07-25T17:53:30.629Z,99834.87
2018-07-25T17:55:57.643Z,99835.45
2018-07-25T17:58:24.865Z,99836.23
2018-07-25T18:00:56.189Z,99838.28
2018-07-25T18:03:23.699Z,99847.55
2018-07-25T18:05:51.605Z,99845.21
2018-07-25T18:08:19.611Z,99856.31
2018-07-25T18:10:46.794Z,99854.81
2018-07-25T18:13:19.600Z,99854.80
2018-07-25T18:15:46.708Z,99860.28
2018-07-25T18:18:13.718Z,99868.50
2018-07-25T18:20:40.798Z,99865.47
2018-07-25T18:23:08.224Z,99871.25
2018-07-25T18:25:35.380Z,99869.44
2018-07-25T18:28:02.604Z,99875.67
2018-07-25T18:30:29.692Z,99878.08
2018-07-25T18:32:56.831Z,99881.29
2018-07-25T18:35:24.297Z,99881.09
2018-07-25T18:37:51.641Z,99880.24
2018-07-25T18:40:20.742Z,99884.06
2018-07-25T18:42:47.836Z,99881.72
2018-07-25T18:45:18.028Z,99887.95
2018-07-25T18:47:46.032Z,99886.91
2018-07-25T18:50:19.649Z,99887.53
2018-07-25T18:52:47.164Z,99893.09
2018-07-25T18:55:15.301Z,99882.64
2018-07-25T18:57:43.514Z,99889.58
2018-07-25T19:00:12.099Z,99886.16
2018-07-25T19:02:40.212Z,99895.24
2018-07-25T19:05:14.345Z,99894.11
2018-07-25T19:07:44.404Z,99896.58
2018-07-25T19:10:11.546Z,99894.50
2018-07-25T19:12:38.800Z,99895.66
2018-07-25T19:15:11.649Z,99888.48
2018-07-25T19:17:38.756Z,99897.89
2018-07-25T19:20:05.807Z,99904.98
2018-07-25T19:22:36.386Z,99910.84
2018-07-25T19:25:05.308Z,99914.04
2018-07-25T19:27:32.488Z,99911.38
2018-07-25T19:29:59.633Z,99912.58
2018-07-25T19:32:27.662Z,99915.55
2018-07-25T19:34:54.793Z,99918.17
2018-07-25T19:37:21.863Z,99913.98
2018-07-25T19:39:48.959Z,99913.18
2018-07-25T19:42:16.219Z,99907.64
2018-07-25T19:44:43.393Z,99921.29
2018-07-25T19:47:18.361Z,99921.01
2018-07-25T19:49:46.229Z,99919.93
2018-07-25T19:52:13.356Z,99926.88
2018-07-25T19:54:40.571Z,99926.62
2018-07-25T19:57:07.760Z,99929.27
2018-07-25T19:59:39.090Z,99923.06
2018-07-25T20:02:06.339Z,99926.50
2018-07-25T20:04:33.468Z,99925.97
2018-07-25T20:07:01.212Z,99932.07
2018-07-25T20:09:29.272Z,99923.95
2018-07-25T20:12:00.037Z,99923.56
2018-07-25T20:14:32.970Z,99923.30
2018-07-25T20:17:01.727Z,99928.86
2018-07-25T20:19:28.892Z,99929.08
2018-07-25T20:21:58.743Z,99926.59
2018-07-25T20:24:25.937Z,99936.82
2018-07-25T20:26:53.808Z,99931.83
2018-07-25T20:29:21.389Z,99929.44
2018-07-25T20:31:54.467Z,99927.08
2018-07-25T20:34:22.395Z,99931.59
2018-07-25T20:36:50.456Z,99940.02
2018-07-25T20:39:17.525Z,99934.94
2018-07-25T20:41:45.640Z,99939.16
2018-07-25T20:44:14.737Z,99946.15
2018-07-25T20:46:45.076Z,99960.59
2018-07-25T20:49:12.207Z,99954.30
2018-07-25T20:51:39.455Z,99954.36
2018-07-25T20:54:14.795Z,99958.02
2018-07-25T20:56:54.016Z,99958.55
2018-07-25T20:59:21.140Z,99962.30
2018-07-25T21:01:51.201Z,99968.05
2018-07-25T21:04:19.192Z,99971.98
2018-07-25T21:06:47.322Z,99963.01
2018-07-25T21:09:16.215Z,99962.48
2018-07-25T21:11:45.116Z,99955.25
2018-07-25T21:14:23.305Z,99957.93
2018-07-25T21:16:52.240Z,99962.70
2018-07-25T21:19:19.341Z,99972.00
2018-07-25T21:21:46.426Z,99964.08
2018-07-25T21:24:14.142Z,99969.56
2018-07-25T21:26:41.263Z,99965.48
2018-07-25T21:29:11.481Z,99962.97
2018-07-25T21:31:40.172Z,99965.64
2018-07-25T21:34:09.219Z,99965.67
2018-07-25T21:36:44.779Z,99968.53
2018-07-25T21:39:13.248Z,99969.09
2018-07-25T21:41:40.624Z,99962.98
2018-07-25T21:44:08.283Z,99967.56
2018-07-25T21:46:35.358Z,99972.41
2018-07-25T21:49:02.935Z,99975.02
2018-07-25T21:51:30.032Z,99976.95
2018-07-25T21:53:58.088Z,99965.46
2018-07-25T21:56:25.328Z,99979.49
2018-07-25T21:58:52.534Z,99984.48
2018-07-25T22:01:33.430Z,99986.52
2018-07-25T22:04:00.536Z,99984.52
2018-07-25T22:06:27.642Z,99985.09
2018-07-25T22:08:56.220Z,99981.12
2018-07-25T22:11:23.237Z,99985.87
2018-07-25T22:13:57.721Z,99986.97
2018-07-25T22:16:27.986Z,99982.45
2018-07-25T22:18:56.486Z,99985.77
2018-07-25T22:21:23.705Z,99990.89
2018-07-25T22:23:50.844Z,99992.92
2018-07-25T22:26:17.949Z,99997.66
2018-07-25T22:28:45.114Z,99994.31
2018-07-25T22:31:12.170Z,99999.55
2018-07-25T22:33:39.233Z,99988.80
2018-07-25T22:36:06.948Z,99986.91
2018-07-25T22:38:34.015Z,99991.00
2018-07-25T22:41:01.108Z,99990.80
2018-07-25T22:43:29.148Z,99994.05
2018-07-25T22:45:56.337Z,99996.08
2018-07-25T22:48:25.468Z,99989.00
2018-07-25T22:50:52.513Z,99992.13
2018-07-25T22:53:25.292Z,99995.09
2018-07-25T22:55:52.415Z,99998.97
2018-07-25T22:58:22.427Z,99993.86
2018-07-25T23:00:50.376Z,100001.11
2018-07-25T23:03:19.196Z,99990.00
2018-07-25T23:05:49.340Z,99989.83
2018-07-25T23:08:17.337Z,99984.45
2018-07-25T23:10:47.662Z,99986.06
2018-07-25T23:13:14.736Z,99985.13
2018-07-25T23:15:44.769Z,99980.06
2018-07-25T23:18:21.238Z,99991.75
2018-07-25T23:20:48.329Z,99991.14
2018-07-25T23:23:15.358Z,99989.23
2018-07-25T23:25:42.359Z,99991.16
2018-07-25T23:28:12.431Z,99984.21
2018-07-25T23:30:40.538Z,99984.42
2018-07-25T23:33:12.276Z,99991.16
2018-07-25T23:35:39.359Z,99987.81
2018-07-25T23:38:06.654Z,99984.88
2018-07-25T23:40:33.770Z,99988.81
2018-07-25T23:43:00.799Z,99985.50
2018-07-25T23:45:27.875Z,99975.07
2018-07-25T23:48:06.229Z,99975.78
2018-07-25T23:50:34.312Z,99980.81
2018-07-25T23:53:03.352Z,99983.98
2018-07-25T23:55:37.841Z,99987.47
2018-07-25T23:58:05.761Z,99987.00
